createdAt,value
2018-07-05T00:01:29.077Z,19.80
2018-07-05T00:04:16.104Z,19.70
2018-07-05T00:07:03.371Z,19.70
2018-07-05T00:09:50.591Z,19.60
2018-07-05T00:12:37.695Z,19.60
2018-07-05T00:15:24.771Z,19.60
2018-07-05T00:18:11.729Z,19.60
2018-07-05T00:20:58.677Z,19.50
2018-07-05T00:23:45.812Z,19.50
2018-07-05T00:26:32.843Z,19.50
2018-07-05T00:29:19.861Z,19.40
2018-07-05T00:32:06.947Z,19.40
2018-07-05T00:34:54.158Z,19.30
2018-07-05T00:37:41.213Z,19.30
2018-07-05T00:40:28.402Z,19.30
2018-07-05T00:45:58.035Z,19.30
2018-07-05T00:48:45.107Z,19.30
2018-07-05T00:51:32.448Z,19.20
2018-07-05T00:54:19.764Z,19.20
2018-07-05T00:57:06.730Z,19.20
2018-07-05T00:59:53.751Z,19.20
2018-07-05T01:02:41.531Z,19.20
2018-07-05T01:05:28.460Z,19.20
2018-07-05T01:08:15.480Z,19.10
2018-07-05T01:11:02.575Z,19.10
2018-07-05T01:13:49.692Z,19.00
2018-07-05T01:16:36.894Z,19.00
2018-07-05T01:19:24.068Z,19.00
2018-07-05T01:22:11.202Z,18.90
2018-07-05T01:24:58.220Z,18.90
2018-07-05T01:27:45.224Z,18.80
2018-07-05T01:30:32.159Z,18.80
2018-07-05T01:33:19.655Z,18.70
2018-07-05T01:36:06.613Z,18.80
2018-07-05T01:38:53.658Z,18.70
2018-07-05T01:41:40.731Z,18.70
2018-07-05T01:44:27.560Z,18.70
2018-07-05T01:47:14.461Z,18.70
2018-07-05T01:50:01.604Z,18.60
2018-07-05T01:52:48.651Z,18.50
2018-07-05T01:55:35.626Z,18.50
2018-07-05T01:58:22.526Z,18.50
2018-07-05T02:01:09.597Z,18.50
2018-07-05T02:03:56.618Z,18.40
2018-07-05T02:06:43.458Z,18.40
2018-07-05T02:09:30.425Z,18.40
2018-07-05T02:12:17.397Z,18.40
2018-07-05T02:15:05.214Z,18.40
2018-07-05T02:17:52.314Z,18.40
2018-07-05T02:20:39.454Z,18.40
2018-07-05T02:23:26.703Z,18.30
2018-07-05T02:26:13.644Z,18.30
2018-07-05T02:31:41.408Z,18.30
2018-07-05T02:34:28.537Z,18.20
2018-07-05T02:37:20.901Z,18.20
2018-07-05T02:40:07.934Z,18.20
2018-07-05T02:42:55.708Z,18.20
2018-07-05T02:45:42.816Z,18.20
2018-07-05T02:48:29.928Z,18.20
2018-07-05T02:51:16.880Z,18.20
2018-07-05T02:54:03.860Z,18.20
2018-07-05T02:56:50.864Z,18.20
2018-07-05T02:59:38.092Z,18.20
2018-07-05T03:02:25.417Z,18.20
2018-07-05T03:05:12.484Z,18.20
2018-07-05T03:07:59.472Z,18.10
2018-07-05T03:10:46.580Z,18.10
2018-07-05T03:13:33.564Z,18.10
2018-07-05T03:16:20.620Z,18.10
2018-07-05T03:19:07.730Z,18.10
2018-07-05T03:21:54.854Z,18.10
2018-07-05T03:24:41.985Z,18.10
2018-07-05T03:27:29.156Z,18.10
2018-07-05T03:30:16.292Z,18.00
2018-07-05T03:35:44.316Z,17.90
2018-07-05T03:38:31.332Z,17.90
2018-07-05T03:41:18.273Z,17.90
2018-07-05T03:44:05.716Z,17.90
2018-07-05T03:46:52.651Z,17.90
2018-07-05T03:49:39.552Z,17.80
2018-07-05T03:52:26.677Z,17.80
2018-07-05T03:55:13.688Z,17.80
2018-07-05T03:58:00.685Z,17.80
2018-07-05T04:00:47.643Z,17.80
2018-07-05T04:03:34.751Z,17.80
2018-07-05T04:06:21.748Z,17.80
2018-07-05T04:09:08.762Z,17.80
2018-07-05T04:11:55.600Z,17.90
2018-07-05T04:14:42.518Z,17.90
2018-07-05T04:17:29.437Z,17.90
2018-07-05T04:20:16.447Z,18.00
2018-07-05T04:23:03.792Z,18.10
2018-07-05T04:25:50.897Z,18.10
2018-07-05T04:28:38.004Z,18.10
2018-07-05T04:31:24.989Z,18.10
2018-07-05T04:34:12.008Z,18.10
2018-07-05T04:36:58.955Z,18.10
2018-07-05T04:39:45.804Z,18.10
2018-07-05T04:42:32.974Z,18.10
2018-07-05T04:45:20.019Z,18.10
2018-07-05T04:48:07.059Z,18.10
2018-07-05T04:50:54.044Z,18.10
2018-07-05T04:53:41.043Z,18.10
2018-07-05T04:56:28.074Z,18.20
2018-07-05T04:59:15.103Z,18.20
2018-07-05T05:02:02.255Z,18.30
2018-07-05T05:04:49.241Z,18.40
2018-07-05T05:07:36.217Z,18.40
2018-07-05T05:10:23.290Z,18.50
2018-07-05T05:13:10.065Z,18.50
2018-07-05T05:15:57.835Z,18.60
2018-07-05T05:18:44.882Z,18.70
2018-07-05T05:21:31.896Z,18.80
2018-07-05T05:24:18.843Z,18.80
2018-07-05T05:27:05.747Z,18.90
2018-07-05T05:29:52.967Z,19.00
2018-07-05T05:32:40.045Z,19.00
2018-07-05T05:35:27.164Z,19.10
2018-07-05T05:38:14.216Z,19.20
2018-07-05T05:41:01.206Z,19.30
2018-07-05T05:43:48.374Z,19.30
2018-07-05T05:46:35.466Z,19.40
2018-07-05T05:49:22.354Z,19.40
2018-07-05T05:52:09.385Z,19.50
2018-07-05T05:54:56.447Z,19.60
2018-07-05T05:57:43.952Z,19.60
2018-07-05T06:00:31.049Z,19.70
2018-07-05T06:03:18.248Z,19.80
2018-07-05T06:06:05.800Z,19.80
2018-07-05T06:08:53.031Z,19.90
2018-07-05T06:11:40.056Z,20.00
2018-07-05T06:14:27.048Z,20.10
2018-07-05T06:17:14.140Z,20.20
2018-07-05T06:20:01.037Z,20.20
2018-07-05T06:22:48.110Z,20.30
2018-07-05T06:25:35.754Z,20.40
2018-07-05T06:28:22.760Z,20.40
2018-07-05T06:31:09.772Z,20.50
2018-07-05T06:33:56.990Z,20.60
2018-07-05T06:36:44.031Z,20.70
2018-07-05T06:39:30.920Z,20.80
2018-07-05T06:42:17.957Z,20.90
2018-07-05T06:45:05.035Z,21.00
2018-07-05T06:47:52.070Z,21.10
2018-07-05T06:50:39.063Z,21.20
2018-07-05T06:53:26.001Z,21.30
2018-07-05T06:56:12.930Z,21.30
2018-07-05T06:59:00.038Z,21.40
2018-07-05T07:01:46.908Z,21.40
2018-07-05T07:04:34.033Z,21.50
2018-07-05T07:07:20.943Z,21.60
2018-07-05T07:10:07.922Z,21.70
2018-07-05T07:12:55.016Z,21.80
2018-07-05T07:15:42.142Z,21.90
2018-07-05T07:18:29.067Z,22.00
2018-07-05T07:21:16.046Z,22.00
2018-07-05T07:24:02.804Z,22.10
2018-07-05T07:26:49.803Z,22.10
2018-07-05T07:29:36.819Z,22.20
2018-07-05T07:32:24.040Z,22.20
2018-07-05T07:35:11.008Z,22.30
2018-07-05T07:37:57.928Z,22.40
2018-07-05T07:40:45.060Z,22.50
2018-07-05T07:43:13.418Z,22.60
2018-07-05T07:45:41.841Z,22.70
2018-07-05T07:48:10.464Z,22.90
2018-07-05T07:50:38.819Z,23.00
2018-07-05T07:53:07.577Z,23.00
2018-07-05T07:55:35.925Z,23.10
2018-07-05T07:58:04.327Z,23.20
2018-07-05T08:00:33.269Z,23.20
2018-07-05T08:03:01.914Z,23.40
2018-07-05T08:05:30.284Z,23.40
2018-07-05T08:07:58.661Z,23.50
2018-07-05T08:10:27.002Z,23.60
2018-07-05T08:12:55.391Z,23.70
2018-07-05T08:15:23.779Z,23.70
2018-07-05T08:17:52.126Z,23.80
2018-07-05T08:20:20.553Z,23.90
2018-07-05T08:22:49.319Z,23.90
2018-07-05T08:25:18.154Z,23.90
2018-07-05T08:27:46.875Z,24.00
2018-07-05T08:30:15.229Z,24.00
2018-07-05T08:32:44.047Z,24.10
2018-07-05T08:35:12.445Z,24.10
2018-07-05T08:37:40.792Z,24.10
2018-07-05T08:40:09.202Z,24.10
2018-07-05T08:42:37.549Z,24.10
2018-07-05T08:45:05.924Z,24.20
2018-07-05T08:47:34.295Z,24.20
2018-07-05T08:50:05.700Z,24.20
2018-07-05T08:52:34.076Z,24.20
2018-07-05T08:55:02.450Z,24.30
2018-07-05T08:57:30.794Z,24.30
2018-07-05T08:59:59.556Z,24.40
2018-07-05T09:02:27.922Z,24.50
2018-07-05T09:04:56.353Z,24.50
2018-07-05T09:07:24.735Z,24.70
2018-07-05T09:09:53.159Z,24.80
2018-07-05T09:12:21.521Z,24.90
2018-07-05T09:14:49.916Z,25.00
2018-07-05T09:17:18.308Z,25.10
2018-07-05T09:19:46.672Z,25.20
2018-07-05T09:22:15.099Z,25.30
2018-07-05T09:24:43.498Z,25.40
2018-07-05T09:27:11.909Z,25.40
2018-07-05T09:32:09.504Z,25.60
2018-07-05T09:34:37.829Z,25.70
2018-07-05T09:37:06.354Z,25.70
2018-07-05T09:39:34.794Z,25.80
2018-07-05T09:42:03.197Z,25.80
2018-07-05T09:44:31.556Z,25.90
2018-07-05T09:47:00.108Z,25.90
2018-07-05T09:49:28.497Z,25.90
2018-07-05T09:51:56.852Z,25.90
2018-07-05T09:54:25.220Z,25.90
2018-07-05T09:56:53.555Z,25.90
2018-07-05T09:59:21.926Z,26.00
2018-07-05T10:01:50.318Z,26.00
2018-07-05T10:04:18.682Z,26.00
2018-07-05T10:06:47.007Z,26.10
2018-07-05T10:09:15.371Z,26.10
2018-07-05T10:11:43.796Z,26.10
2018-07-05T10:14:12.141Z,26.10
2018-07-05T10:16:40.512Z,26.20
2018-07-05T10:19:08.870Z,26.20
2018-07-05T10:21:37.287Z,26.20
2018-07-05T10:24:05.704Z,26.30
2018-07-05T10:26:34.067Z,26.30
2018-07-05T10:29:21.405Z,26.40
2018-07-05T10:32:08.399Z,26.40
2018-07-05T10:34:36.765Z,26.40
2018-07-05T10:37:05.122Z,26.50
2018-07-05T10:39:33.522Z,26.60
2018-07-05T10:42:20.388Z,26.80
2018-07-05T10:45:07.327Z,26.90
2018-07-05T10:47:54.510Z,27.00
2018-07-05T10:50:41.650Z,27.20
2018-07-05T10:53:28.551Z,27.20
2018-07-05T10:56:15.453Z,27.30
2018-07-05T10:59:02.615Z,27.30
2018-07-05T11:01:49.694Z,27.30
2018-07-05T11:04:36.877Z,27.40
2018-07-05T11:07:24.011Z,27.40
2018-07-05T11:10:11.127Z,27.40
2018-07-05T11:12:58.368Z,27.50
2018-07-05T11:15:45.209Z,27.60
2018-07-05T11:18:32.154Z,27.70
2018-07-05T11:21:19.300Z,27.80
2018-07-05T11:24:06.367Z,27.90
2018-07-05T11:26:53.543Z,28.00
2018-07-05T11:29:40.626Z,28.10
2018-07-05T11:32:27.952Z,28.20
2018-07-05T11:35:14.956Z,28.30
2018-07-05T11:38:02.075Z,28.40
2018-07-05T11:40:49.296Z,28.50
2018-07-05T11:43:36.300Z,28.60
2018-07-05T11:46:23.341Z,28.80
2018-07-05T11:49:10.491Z,28.80
2018-07-05T11:51:57.482Z,28.70
2018-07-05T11:54:44.928Z,28.50
2018-07-05T11:57:31.844Z,28.40
2018-07-05T12:00:18.920Z,28.40
2018-07-05T12:03:07.186Z,28.40
2018-07-05T12:05:54.203Z,28.50
2018-07-05T12:08:41.272Z,28.60
2018-07-05T12:11:28.380Z,28.80
2018-07-05T12:14:15.329Z,28.90
2018-07-05T12:17:02.345Z,28.80
2018-07-05T12:19:49.383Z,28.70
2018-07-05T12:22:36.335Z,28.60
2018-07-05T12:25:23.301Z,28.40
2018-07-05T12:28:10.387Z,28.20
2018-07-05T12:30:57.479Z,28.10
2018-07-05T12:33:44.479Z,27.90
2018-07-05T12:36:31.803Z,27.70
2018-07-05T12:39:18.734Z,27.50
2018-07-05T12:42:05.887Z,27.40
2018-07-05T12:44:52.915Z,27.30
2018-07-05T12:47:40.019Z,27.20
2018-07-05T12:50:26.869Z,27.10
2018-07-05T12:53:14.446Z,27.00
2018-07-05T12:56:01.539Z,26.70
2018-07-05T12:58:48.629Z,26.20
2018-07-05T13:01:35.684Z,25.30
2018-07-05T13:04:22.852Z,24.60
2018-07-05T13:07:09.841Z,24.00
2018-07-05T13:09:56.749Z,23.60
2018-07-05T13:12:43.859Z,23.50
2018-07-05T13:15:30.927Z,23.50
2018-07-05T13:18:17.962Z,23.70
2018-07-05T13:21:04.945Z,23.90
2018-07-05T13:23:51.879Z,24.10
2018-07-05T13:26:38.973Z,24.30
2018-07-05T13:29:26.036Z,24.30
2018-07-05T13:32:12.852Z,24.20
2018-07-05T13:34:59.712Z,24.10
2018-07-05T13:37:46.767Z,24.00
2018-07-05T13:40:33.941Z,23.90
2018-07-05T13:43:21.327Z,23.60
2018-07-05T13:46:08.552Z,23.40
2018-07-05T13:48:55.582Z,23.30
2018-07-05T13:51:42.571Z,23.10
2018-07-05T13:54:29.565Z,23.00
2018-07-05T13:57:16.519Z,22.90
2018-07-05T14:00:03.521Z,22.70
2018-07-05T14:02:51.704Z,22.40
2018-07-05T14:05:38.704Z,22.00
2018-07-05T14:08:25.681Z,21.70
2018-07-05T14:11:12.786Z,21.40
2018-07-05T14:14:00.068Z,21.00
2018-07-05T14:16:47.044Z,20.70
2018-07-05T14:19:34.083Z,20.40
2018-07-05T14:22:21.093Z,20.00
2018-07-05T14:25:08.057Z,19.60
2018-07-05T14:27:55.195Z,19.10
2018-07-05T14:30:42.431Z,18.50
2018-07-05T14:33:29.497Z,18.10
2018-07-05T14:36:16.664Z,17.80
2018-07-05T14:39:04.561Z,17.60
2018-07-05T14:41:51.728Z,17.50
2018-07-05T14:44:38.672Z,17.40
2018-07-05T14:47:25.735Z,17.30
2018-07-05T14:50:12.690Z,17.30
2018-07-05T14:53:02.078Z,17.30
2018-07-05T14:55:49.245Z,17.30
2018-07-05T14:58:36.362Z,17.40
2018-07-05T15:01:23.391Z,17.40
2018-07-05T15:04:10.474Z,17.40
2018-07-05T15:06:57.591Z,17.40
2018-07-05T15:09:44.533Z,17.50
2018-07-05T15:12:31.454Z,17.50
2018-07-05T15:15:18.615Z,17.60
2018-07-05T15:18:05.643Z,17.60
2018-07-05T15:20:52.700Z,17.60
2018-07-05T15:26:20.811Z,17.60
2018-07-05T15:29:07.996Z,17.70
2018-07-05T15:31:55.005Z,17.70
2018-07-05T15:34:41.957Z,17.70
2018-07-05T15:37:28.973Z,17.70
2018-07-05T15:40:15.974Z,17.70
2018-07-05T15:43:03.426Z,17.70
2018-07-05T15:45:50.356Z,17.60
2018-07-05T15:48:37.270Z,17.60
2018-07-05T15:51:24.445Z,17.60
2018-07-05T15:54:11.562Z,17.60
2018-07-05T15:56:58.648Z,17.60
2018-07-05T15:59:45.746Z,17.60
2018-07-05T16:02:32.922Z,17.70
2018-07-05T16:05:20.046Z,17.70
2018-07-05T16:08:07.055Z,17.70
2018-07-05T16:10:54.238Z,17.70
2018-07-05T16:13:41.276Z,17.60
2018-07-05T16:16:28.362Z,17.60
2018-07-05T16:19:15.505Z,17.50
2018-07-05T16:22:02.658Z,17.50
2018-07-05T16:24:49.717Z,17.60
2018-07-05T16:27:37.158Z,17.70
2018-07-05T16:30:24.284Z,17.70
2018-07-05T16:33:11.756Z,17.80
2018-07-05T16:35:58.880Z,17.80
2018-07-05T16:38:46.054Z,17.90
2018-07-05T16:41:33.770Z,17.90
2018-07-05T16:44:20.774Z,17.90
2018-07-05T16:47:07.791Z,17.80
2018-07-05T16:49:54.711Z,17.70
2018-07-05T16:52:42.951Z,17.60
2018-07-05T16:55:29.977Z,17.60
2018-07-05T16:58:16.987Z,17.60
2018-07-05T17:01:04.177Z,17.60
2018-07-05T17:03:51.346Z,17.60
2018-07-05T17:06:38.448Z,17.60
2018-07-05T17:12:06.531Z,17.60
2018-07-05T17:14:54.512Z,17.60
2018-07-05T17:17:41.661Z,17.60
2018-07-05T17:20:28.572Z,17.60
2018-07-05T17:23:16.399Z,17.70
2018-07-05T17:26:03.375Z,17.60
2018-07-05T17:28:50.834Z,17.70
2018-07-05T17:31:37.928Z,17.70
2018-07-05T17:34:25.234Z,17.70
2018-07-05T17:37:12.335Z,17.70
2018-07-05T17:39:59.509Z,17.70
2018-07-05T17:42:47.629Z,17.70
2018-07-05T17:45:34.612Z,17.70
2018-07-05T17:48:21.566Z,17.80
2018-07-05T17:51:08.642Z,17.90
2018-07-05T17:53:55.822Z,17.90
2018-07-05T17:56:42.983Z,17.90
2018-07-05T17:59:30.137Z,18.00
2018-07-05T18:02:17.287Z,18.10
2018-07-05T18:05:04.278Z,18.10
2018-07-05T18:07:51.218Z,18.10
2018-07-05T18:10:38.454Z,18.20
2018-07-05T18:13:25.406Z,18.20
2018-07-05T18:16:12.546Z,18.30
2018-07-05T18:18:59.633Z,18.30
2018-07-05T18:21:46.422Z,18.40
2018-07-05T18:24:33.479Z,18.40
2018-07-05T18:27:20.522Z,18.40
2018-07-05T18:30:07.706Z,18.40
2018-07-05T18:35:35.845Z,18.40
2018-07-05T18:38:22.751Z,18.40
2018-07-05T18:41:09.658Z,18.40
2018-07-05T18:43:56.767Z,18.40
2018-07-05T18:46:43.791Z,18.40
2018-07-05T18:49:30.715Z,18.40
2018-07-05T18:52:17.754Z,18.40
2018-07-05T18:55:04.690Z,18.40
2018-07-05T18:57:51.827Z,18.40
2018-07-05T19:00:38.807Z,18.50
2018-07-05T19:03:26.410Z,18.50
2018-07-05T19:06:13.500Z,18.50
2018-07-05T19:09:00.404Z,18.40
2018-07-05T19:11:47.535Z,18.40
2018-07-05T19:14:34.555Z,18.40
2018-07-05T19:17:21.890Z,18.40
2018-07-05T19:20:08.884Z,18.40
2018-07-05T19:22:56.200Z,18.40
2018-07-05T19:25:43.456Z,18.30
2018-07-05T19:28:30.645Z,18.30
2018-07-05T19:31:17.542Z,18.30
2018-07-05T19:34:04.602Z,18.30
2018-07-05T19:36:51.584Z,18.30
2018-07-05T19:39:38.809Z,18.30
2018-07-05T19:42:25.920Z,18.30
2018-07-05T19:45:12.892Z,18.30
2018-07-05T19:48:00.295Z,18.30
2018-07-05T19:50:47.310Z,18.40
2018-07-05T19:56:15.330Z,18.40
2018-07-05T19:59:02.225Z,18.40
2018-07-05T20:01:49.295Z,18.40
2018-07-05T20:04:36.326Z,18.40
2018-07-05T20:07:23.514Z,18.40
2018-07-05T20:10:10.761Z,18.40
2018-07-05T20:12:58.444Z,18.40
2018-07-05T20:15:45.540Z,18.40
2018-07-05T20:18:32.700Z,18.30
2018-07-05T20:21:19.901Z,18.30
2018-07-05T20:24:06.970Z,18.40
2018-07-05T20:26:54.551Z,18.40
2018-07-05T20:29:41.644Z,18.40
2018-07-05T20:32:28.673Z,18.40
2018-07-05T20:35:15.825Z,18.40
2018-07-05T20:38:02.807Z,18.40
2018-07-05T20:40:50.044Z,18.40
2018-07-05T20:43:36.967Z,18.40
2018-07-05T20:46:24.020Z,18.40
2018-07-05T20:49:11.241Z,18.40
2018-07-05T20:51:58.309Z,18.40
2018-07-05T20:54:45.905Z,18.40
2018-07-05T20:57:32.941Z,18.40
2018-07-05T21:00:19.876Z,18.50
2018-07-05T21:03:07.627Z,18.50
2018-07-05T21:05:54.677Z,18.50
2018-07-05T21:08:41.875Z,18.50
2018-07-05T21:11:29.033Z,18.50
2018-07-05T21:14:16.363Z,18.50
2018-07-05T21:17:03.410Z,18.60
2018-07-05T21:22:50.464Z,18.60
2018-07-05T21:25:37.598Z,18.60
2018-07-05T21:28:24.515Z,18.60
2018-07-05T21:31:11.835Z,18.60
2018-07-05T21:33:58.968Z,18.60
2018-07-05T21:36:46.047Z,18.60
2018-07-05T21:39:33.055Z,18.60
2018-07-05T21:42:20.226Z,18.70
2018-07-05T21:45:07.389Z,18.70
2018-07-05T21:47:54.527Z,18.70
2018-07-05T21:50:41.579Z,18.70
2018-07-05T21:53:28.799Z,18.70
2018-07-05T21:56:15.923Z,18.70
2018-07-05T21:59:02.997Z,18.70
2018-07-05T22:01:49.999Z,18.70
2018-07-05T22:04:37.142Z,18.70
2018-07-05T22:07:24.256Z,18.70
2018-07-05T22:10:11.289Z,18.70
2018-07-05T22:12:58.403Z,18.70
2018-07-05T22:15:45.484Z,18.70
2018-07-05T22:18:37.908Z,18.70
2018-07-05T22:21:24.974Z,18.60
2018-07-05T22:24:17.334Z,18.70
2018-07-05T22:27:04.394Z,18.70
2018-07-05T22:29:56.694Z,18.70
2018-07-05T22:32:44.149Z,18.70
2018-07-05T22:35:31.192Z,18.70
2018-07-05T22:38:18.186Z,18.70
2018-07-05T22:41:05.195Z,18.70
2018-07-05T22:43:52.258Z,18.70
2018-07-05T22:46:39.364Z,18.70
2018-07-05T22:49:26.268Z,18.70
2018-07-05T22:52:13.301Z,18.70
2018-07-05T22:55:00.245Z,18.70
2018-07-05T22:57:47.341Z,18.70
2018-07-05T23:00:34.296Z,18.60
2018-07-05T23:03:21.366Z,18.60
2018-07-05T23:06:08.374Z,18.60
2018-07-05T23:08:55.580Z,18.60
2018-07-05T23:11:42.529Z,18.60
2018-07-05T23:14:29.583Z,18.60
2018-07-05T23:17:16.512Z,18.60
2018-07-05T23:20:03.518Z,18.60
2018-07-05T23:22:50.665Z,18.60
2018-07-05T23:25:37.694Z,18.50
2018-07-05T23:28:24.544Z,18.50
2018-07-05T23:31:11.464Z,18.50
2018-07-05T23:33:58.357Z,18.50
2018-07-05T23:36:45.357Z,18.50
2018-07-05T23:39:32.429Z,18.50
2018-07-05T23:45:00.522Z,18.50
2018-07-05T23:47:47.305Z,18.50
2018-07-05T23:50:34.227Z,18.40
2018-07-05T23:53:21.647Z,18.50
2018-07-05T23:56:08.796Z,18.50
2018-07-05T23:58:55.829Z,18.50
